»·PEaware :: SNK402 KASE-KJAC

SNK402 :: KASE-KJAC

FLIGHT INFORMATION

Flight Status: Arrived
Operator: Unknown
More flights by this operator :: More flights under this callsign
Pilot: Anonymous 36068 (36068)
Aircraft: BEECH AIRCRAFT PREMIER
(PRM1)
More flights by this aircraft type
Origin: KASE Aspen-Pitkin Co/Sardy
United States
Destination: KJAC Jackson Hole
United States
More flights between these airports :: More routes between these airports
Route: LINDZ9 EKR OCS BPI DNW
File this flight plan on PilotEdge
Remarks:
Altitude:
(Current/Filed)
28,000ft
Speed:
(Current/Filed)
400kts
Departed: 14-Sep-21 07:53 AM
Arrived: 14-Sep-21 08:57 AM
Distance/Time
Traveled:
315nm/1:04
Distance/Time
To Go:
Arrived

Flight Plot

Page will automatically refresh every two minutes.

Flight plan parsing failed; only flown route is shown


Map Options




Map Legend


Flown Route
Filed Route
Departure Airport
Arrival Airport
Navaid (VOR, NDB)
Fix

Horizontal Profiles

Position Reports

Time Latitude Longitude Heading Altitude Ground
Speed
14-Sep-21 07:27 39.218900 -106.864549 69 7844ft 0kts
14-Sep-21 07:28 39.218900 -106.864549 69 7844ft 0kts
14-Sep-21 07:29 39.218900 -106.864549 69 7844ft 0kts
14-Sep-21 07:30 39.218900 -106.864549 69 7844ft 0kts
14-Sep-21 07:31 39.218900 -106.864549 69 7844ft 0kts
14-Sep-21 07:32 39.218900 -106.864549 69 7844ft 0kts
14-Sep-21 07:33 39.218900 -106.864549 69 7844ft 0kts
14-Sep-21 07:34 39.218900 -106.864549 69 7844ft 0kts
14-Sep-21 07:35 39.218900 -106.864549 69 7844ft 0kts
14-Sep-21 07:36 39.218900 -106.864549 69 7844ft 0kts
14-Sep-21 07:37 39.218900 -106.864549 69 7844ft 0kts
14-Sep-21 07:38 39.218900 -106.864549 69 7844ft 0kts
14-Sep-21 07:39 39.218900 -106.864549 69 7844ft 0kts
14-Sep-21 07:40 39.218900 -106.864549 69 7844ft 0kts
14-Sep-21 07:41 39.218900 -106.864549 69 7844ft 0kts
14-Sep-21 07:42 39.218900 -106.864549 69 7844ft 0kts
14-Sep-21 07:43 39.218900 -106.864549 69 7844ft 0kts
14-Sep-21 07:44 39.218900 -106.864549 69 7844ft 0kts
14-Sep-21 07:45 39.218989 -106.864615 243 7844ft 3kts
14-Sep-21 07:46 39.217593 -106.864950 159 7844ft 7kts
14-Sep-21 07:47 39.213938 -106.863223 159 7844ft 15kts
14-Sep-21 07:48 39.212423 -106.862501 162 7844ft 0kts
14-Sep-21 07:49 39.212423 -106.862501 162 7844ft 0kts
14-Sep-21 07:50 39.212423 -106.862501 162 7844ft 0kts
14-Sep-21 07:51 39.211788 -106.862995 253 7844ft 11kts
14-Sep-21 07:52 39.233014 -106.873740 340 8182ft 166kts
14-Sep-21 07:53 39.265957 -106.910821 276 10794ft 195kts
14-Sep-21 07:54 39.276627 -106.984692 281 13331ft 225kts
14-Sep-21 07:55 39.308798 -107.054822 314 15864ft 242kts
14-Sep-21 07:56 39.356919 -107.116889 315 18363ft 249kts
14-Sep-21 07:57 39.381841 -107.192602 258 20888ft 240kts
14-Sep-21 07:58 39.363874 -107.286147 256 22078ft 283kts
14-Sep-21 07:59 39.344906 -107.383350 256 24098ft 285kts
14-Sep-21 08:00 39.325238 -107.483643 256 25767ft 292kts
14-Sep-21 08:01 39.305902 -107.584618 267 27633ft 286kts
14-Sep-21 08:02 39.361149 -107.652076 340 28294ft 317kts
14-Sep-21 08:03 39.451717 -107.689176 342 28290ft 363kts
14-Sep-21 08:04 39.552791 -107.728893 343 28288ft 396kts
14-Sep-21 08:05 39.661571 -107.770094 343 28286ft 419kts
14-Sep-21 08:06 39.773140 -107.812474 343 28283ft 418kts
14-Sep-21 08:07 39.884535 -107.854931 343 28283ft 417kts
14-Sep-21 08:08 39.995610 -107.897410 343 28283ft 416kts
14-Sep-21 08:09 40.103255 -107.950337 332 28283ft 416kts
14-Sep-21 08:10 40.205436 -108.021436 331 28283ft 416kts
14-Sep-21 08:11 40.307160 -108.092849 331 28283ft 416kts
14-Sep-21 08:12 40.408728 -108.164395 331 28283ft 416kts
14-Sep-21 08:13 40.510774 -108.236526 331 28283ft 416kts
14-Sep-21 08:14 40.612333 -108.308565 331 28283ft 416kts
14-Sep-21 08:15 40.701542 -108.372050 331 28283ft 416kts
14-Sep-21 08:16 40.795801 -108.439341 331 27999ft 420kts
14-Sep-21 08:17 40.897909 -108.512484 331 27999ft 416kts
14-Sep-21 08:18 40.999212 -108.585306 331 27999ft 415kts
14-Sep-21 08:19 41.100355 -108.658270 331 27999ft 414kts
14-Sep-21 08:20 41.201247 -108.731308 331 27999ft 413kts
14-Sep-21 08:21 41.301633 -108.804238 331 27999ft 413kts
14-Sep-21 08:22 41.402268 -108.877609 331 27999ft 413kts
14-Sep-21 08:23 41.502835 -108.951191 331 28000ft 413kts
14-Sep-21 08:24 41.601289 -109.029017 323 27998ft 412kts
14-Sep-21 08:25 41.690621 -109.124309 320 28000ft 412kts
14-Sep-21 08:26 41.779444 -109.221095 320 28000ft 412kts
14-Sep-21 08:27 41.868229 -109.318191 320 28000ft 412kts
14-Sep-21 08:28 41.957007 -109.415639 320 28000ft 412kts
14-Sep-21 08:29 42.045605 -109.513252 320 28000ft 413kts
14-Sep-21 08:30 42.134437 -109.611486 320 28000ft 413kts
14-Sep-21 08:31 42.223077 -109.709877 320 28000ft 413kts
14-Sep-21 08:32 42.311354 -109.808234 320 28000ft 413kts
14-Sep-21 08:33 42.399765 -109.907112 320 28000ft 413kts
14-Sep-21 08:34 42.487985 -110.006132 320 28000ft 413kts
14-Sep-21 08:35 42.578738 -110.100902 336 28007ft 413kts
14-Sep-21 08:36 42.690896 -110.129068 352 28000ft 413kts
14-Sep-21 08:37 42.804662 -110.149342 352 28000ft 413kts
14-Sep-21 08:38 42.918513 -110.169736 352 27815ft 418kts
14-Sep-21 08:39 43.033063 -110.190332 352 25819ft 415kts
14-Sep-21 08:40 43.146511 -110.210806 352 23813ft 407kts
14-Sep-21 08:41 43.257056 -110.230830 352 21813ft 398kts
14-Sep-21 08:42 43.365262 -110.250497 352 20043ft 384kts
14-Sep-21 08:43 43.465037 -110.268698 352 19995ft 343kts
14-Sep-21 08:44 43.556371 -110.285414 352 19997ft 322kts
14-Sep-21 08:45 43.643193 -110.301351 352 19998ft 311kts
14-Sep-21 08:46 43.727794 -110.316926 352 17705ft 293kts
14-Sep-21 08:47 43.787181 -110.327886 352 15765ft 271kts
14-Sep-21 08:48 43.823372 -110.402265 266 13309ft 252kts
14-Sep-21 08:49 43.817014 -110.494496 264 11362ft 225kts
14-Sep-21 08:50 43.801043 -110.569989 245 9896ft 191kts
14-Sep-21 08:51 43.778452 -110.624090 224 9656ft 163kts
14-Sep-21 08:52 43.742440 -110.665265 218 8864ft 163kts
14-Sep-21 08:53 43.703395 -110.690839 198 8052ft 151kts
14-Sep-21 08:54 43.663316 -110.710393 199 7472ft 157kts
14-Sep-21 08:55 43.626241 -110.728513 199 6708ft 129kts
14-Sep-21 08:56 43.603801 -110.738456 105 6425ft 1kts
14-Sep-21 08:57 43.603799 -110.738442 105 6425ft 1kts
14-Sep-21 08:58 43.603473 -110.737004 109 6427ft 3kts
14-Sep-21 08:59 43.603463 -110.736966 108 6427ft 0kts

Navigation Log

Ident Type
Flight plan parsing failed, navigation log unavailable